KROAKLYH

Guest
Details From KROA - Roanoke Rgnl Woodrum Field
To KLYH - LYNCHBURG RGNL PRESTON GLENN FLD
Flight Number -
Tags decoded
Created
Modified
Stats Distance 37 nm / 69 km
Max Altitude 0 ft / 0 m
Waypoints 3
Social Downloads 0
Likes 0
Share VATSIM

Download

Looking for another format? Having issues loading an existing format? Contact us
Advertisement - Login to hide

Notes

Requested: KROA GOOZE KLYH

Route

KROA GOOZE KLYH

ID Type Via Altitude Latitude Longitude Leg Dist Tot Dist Heading (true) Name
O KROA APT - 0 ft / 0 m 37.32488˚ -79.97597˚ - 0 nm - Roanoke Rgnl Woodrum Field
GOOZE FIX - 0 ft / 0 m 37.28914˚ -79.55373˚ 20 nm 20 nm 96° / 96° -
O KLYH APT - 0 ft / 0 m 37.32733˚ -79.20014˚ 17 nm 37 nm 82° / 82° LYNCHBURG RGNL PRESTON GLENN FLD

Altitude Profile

Advertisement - Login to hide

KROA

Details ICAO KROA (ROA)
Name Roanoke Rgnl Woodrum Field
Region United States
Timezone America/New_York (UTC-5.0)
Stats Elevation 1,175 ft / 358 m (AMSL)
Location 37.324878° -79.975970°
Runways 2
Magnetic Variation 8.694° W

METAR

KROA 141254Z 30022G36KT 10SM BKN055 07/M04 A2970 RMK AO2 PK WND 28036/1247 SLP061 T00721044

Decode

TAF

KROA 141135Z 1412/1512 28018G35KT P6SM SCT050 FM141800 30012G22KT P6SM SCT200 FM142100 31010KT P6SM SCT200 FM150400 00000KT P6SM BKN200 FM151000 00000KT P6SM BKN045

Decode

Departure Runways

ID Width Length Bearing (true) Bearing (mag) Surface Threshold Offset Overrun Length
06 151 ft / 46 m 6,002 ft / 1,829 m 49.64° 58.33° Asphalt 177 ft / 54 m 52 ft / 16 m
15 151 ft / 46 m 5,816 ft / 1,773 m 148.03° 156.72° Asphalt 184 ft / 56 m 33 ft / 10 m
24 151 ft / 46 m 6,002 ft / 1,829 m 229.65° 238.34° Asphalt 112 ft / 34 m 850 ft / 259 m
33 151 ft / 46 m 5,816 ft / 1,773 m 328.03° 336.72° Asphalt 180 ft / 55 m 49 ft / 15 m

KLYH

Details ICAO KLYH (LYH)
Name LYNCHBURG RGNL PRESTON GLENN FLD
Region United States
Timezone America/New_York (UTC-5.0)
Stats Elevation 938 ft / 286 m (AMSL)
Location 37.327327° -79.200143°
Runways 2
Magnetic Variation 9.193° W

METAR

KLYH 141254Z 21006KT 10SM BKN060 01/M07 A2967 RMK AO2 SLP052 T00061067

Decode

TAF

TAF KLYH 141135Z 1412/1512 22008KT P6SM SCT060 FM141400 27010G20KT P6SM FEW200 FM141800 29010KT P6SM FEW200 FM151000 04004KT P6SM BKN050

Decode

Destination Runways

ID Width Length Bearing (true) Bearing (mag) Surface Threshold Offset Overrun Length
04 151 ft / 46 m 5,803 ft / 1,769 m 27.78° 36.97° Asphalt 171 ft / 52 m 0 ft / 0 m
17 135 ft / 41 m 3,636 ft / 1,108 m 161.06° 170.25° Asphalt 0 ft / 0 m 164 ft / 50 m
22 151 ft / 46 m 5,803 ft / 1,769 m 207.79° 216.98° Asphalt 177 ft / 54 m 0 ft / 0 m
35 135 ft / 41 m 3,636 ft / 1,108 m 341.06° 350.25° Asphalt 0 ft / 0 m 197 ft / 60 m

Approach Navaids

Runway Type Ident Frequency Range Bearing (true) Bearing (mag) Slope Elevation
04 Localiser ILYH 110.10 MHz 18 nm / 33 km 27.72° 36.91° - 938 ft / 286 m (AMSL)
04 Glidescope ILYH 110.10 MHz 10 nm / 19 km 27.79° 36.98° 3.00° 901 ft / 275 m (AMSL)

Popular Alternatives